sensor_id;sensor_type;location;lat;lon;timestamp;pressure;altitude;pressure_sealevel;temperature;humidity
68141;BME280;54941;52.220;104.306;2023-04-30T00:00:10;94930.28;;;16.09;39.07
68141;BME280;54941;52.220;104.306;2023-04-30T00:02:40;94945.59;;;17.67;36.46
68141;BME280;54941;52.220;104.306;2023-04-30T00:05:07;94941.09;;;18.05;34.94
68141;BME280;54941;52.220;104.306;2023-04-30T00:07:33;94923.50;;;17.96;34.67
68141;BME280;54941;52.220;104.306;2023-04-30T00:09:59;94903.59;;;16.03;37.83
68141;BME280;54941;52.220;104.306;2023-04-30T00:12:26;94914.25;;;16.97;36.79
68141;BME280;54941;52.220;104.306;2023-04-30T00:14:52;94908.56;;;17.51;35.55
68141;BME280;54941;52.220;104.306;2023-04-30T00:17:19;94906.00;;;18.43;33.98
68141;BME280;54941;52.220;104.306;2023-04-30T00:19:46;94905.69;;;18.44;33.95
68141;BME280;54941;52.220;104.306;2023-04-30T00:22:13;94907.91;;;18.92;33.40
68141;BME280;54941;52.220;104.306;2023-04-30T00:24:39;94908.69;;;17.41;35.67
68141;BME280;54941;52.220;104.306;2023-04-30T00:27:05;94906.44;;;17.72;35.72
68141;BME280;54941;52.220;104.306;2023-04-30T00:29:31;94915.88;;;18.87;33.92
68141;BME280;54941;52.220;104.306;2023-04-30T00:31:58;94921.41;;;20.02;32.27
68141;BME280;54941;52.220;104.306;2023-04-30T00:34:24;94916.13;;;19.93;31.91
68141;BME280;54941;52.220;104.306;2023-04-30T00:36:52;94906.06;;;18.92;33.39
68141;BME280;54941;52.220;104.306;2023-04-30T00:39:18;94908.31;;;19.35;33.38
68141;BME280;54941;52.220;104.306;2023-04-30T00:41:45;94913.19;;;19.14;33.38
68141;BME280;54941;52.220;104.306;2023-04-30T00:44:11;94903.31;;;17.88;35.30
68141;BME280;54941;52.220;104.306;2023-04-30T00:46:37;94904.56;;;18.91;33.83
68141;BME280;54941;52.220;104.306;2023-04-30T00:49:04;94900.59;;;20.50;31.07
68141;BME280;54941;52.220;104.306;2023-04-30T00:51:31;94898.19;;;19.56;32.90
68141;BME280;54941;52.220;104.306;2023-04-30T00:54:00;94894.75;;;19.91;31.72
68141;BME280;54941;52.220;104.306;2023-04-30T00:56:27;94888.44;;;20.23;31.73
68141;BME280;54941;52.220;104.306;2023-04-30T00:58:55;94884.56;;;19.89;32.12
68141;BME280;54941;52.220;104.306;2023-04-30T01:01:21;94877.34;;;20.17;31.88
68141;BME280;54941;52.220;104.306;2023-04-30T01:03:48;94873.66;;;21.31;30.41
68141;BME280;54941;52.220;104.306;2023-04-30T01:06:14;94873.00;;;21.26;30.42
68141;BME280;54941;52.220;104.306;2023-04-30T01:08:40;94873.28;;;21.07;30.42
68141;BME280;54941;52.220;104.306;2023-04-30T01:11:18;94881.28;;;21.88;29.33
68141;BME280;54941;52.220;104.306;2023-04-30T01:13:52;94891.50;;;21.64;29.36
68141;BME280;54941;52.220;104.306;2023-04-30T01:16:23;94885.41;;;20.29;30.88
68141;BME280;54941;52.220;104.306;2023-04-30T01:18:54;94879.56;;;20.02;31.42
68141;BME280;54941;52.220;104.306;2023-04-30T01:21:21;94875.16;;;19.58;32.61
68141;BME280;54941;52.220;104.306;2023-04-30T01:24:12;94865.84;;;19.43;32.98
68141;BME280;54941;52.220;104.306;2023-04-30T01:26:52;94858.19;;;18.61;34.39
68141;BME280;54941;52.220;104.306;2023-04-30T01:29:26;94853.78;;;19.20;33.18
68141;BME280;54941;52.220;104.306;2023-04-30T01:31:53;94858.13;;;18.88;33.84
68141;BME280;54941;52.220;104.306;2023-04-30T01:34:20;94850.72;;;20.24;31.50
68141;BME280;54941;52.220;104.306;2023-04-30T01:36:55;94842.41;;;20.22;31.71
68141;BME280;54941;52.220;104.306;2023-04-30T01:39:37;94837.09;;;19.43;32.80
68141;BME280;54941;52.220;104.306;2023-04-30T01:42:08;94834.13;;;19.58;32.12
68141;BME280;54941;52.220;104.306;2023-04-30T01:45:25;94834.25;;;20.23;30.88
68141;BME280;54941;52.220;104.306;2023-04-30T01:48:00;94838.53;;;20.59;30.24
68141;BME280;54941;52.220;104.306;2023-04-30T01:50:36;94832.63;;;21.18;29.70
68141;BME280;54941;52.220;104.306;2023-04-30T01:53:06;94825.81;;;22.15;28.33
68141;BME280;54941;52.220;104.306;2023-04-30T01:55:43;94823.50;;;21.42;29.09
68141;BME280;54941;52.220;104.306;2023-04-30T01:58:15;94826.84;;;20.73;30.08
68141;BME280;54941;52.220;104.306;2023-04-30T02:00:43;94822.25;;;20.96;30.02
68141;BME280;54941;52.220;104.306;2023-04-30T02:03:09;94825.78;;;21.69;29.01
68141;BME280;54941;52.220;104.306;2023-04-30T02:05:36;94820.19;;;22.25;28.27
68141;BME280;54941;52.220;104.306;2023-04-30T02:08:02;94812.06;;;22.77;28.45
68141;BME280;54941;52.220;104.306;2023-04-30T02:10:28;94814.00;;;22.68;27.80
68141;BME280;54941;52.220;104.306;2023-04-30T02:12:55;94810.88;;;22.07;28.79
68141;BME280;54941;52.220;104.306;2023-04-30T02:15:21;94804.56;;;22.88;27.80
68141;BME280;54941;52.220;104.306;2023-04-30T02:17:49;94805.94;;;21.25;29.55
68141;BME280;54941;52.220;104.306;2023-04-30T02:20:16;94803.34;;;23.26;26.27
68141;BME280;54941;52.220;104.306;2023-04-30T02:22:42;94800.84;;;22.68;27.32
68141;BME280;54941;52.220;104.306;2023-04-30T02:25:09;94801.50;;;21.89;28.63
68141;BME280;54941;52.220;104.306;2023-04-30T02:27:35;94804.50;;;23.70;26.45
68141;BME280;54941;52.220;104.306;2023-04-30T02:30:01;94793.78;;;23.43;26.47
68141;BME280;54941;52.220;104.306;2023-04-30T02:32:32;94786.56;;;22.48;27.55
68141;BME280;54941;52.220;104.306;2023-04-30T02:35:00;94787.78;;;22.51;27.54
68141;BME280;54941;52.220;104.306;2023-04-30T02:37:27;94782.47;;;21.46;28.31
68141;BME280;54941;52.220;104.306;2023-04-30T02:39:53;94781.31;;;24.09;25.75
68141;BME280;54941;52.220;104.306;2023-04-30T02:42:19;94777.47;;;23.28;26.02
68141;BME280;54941;52.220;104.306;2023-04-30T02:44:46;94774.22;;;23.64;26.18
68141;BME280;54941;52.220;104.306;2023-04-30T02:47:12;94762.72;;;22.83;26.89
68141;BME280;54941;52.220;104.306;2023-04-30T02:49:38;94757.13;;;22.84;27.38
68141;BME280;54941;52.220;104.306;2023-04-30T02:52:06;94755.25;;;22.64;26.58
68141;BME280;54941;52.220;104.306;2023-04-30T02:54:32;94756.00;;;22.73;26.85
68141;BME280;54941;52.220;104.306;2023-04-30T02:56:59;94751.31;;;23.32;26.19
68141;BME280;54941;52.220;104.306;2023-04-30T02:59:25;94755.59;;;23.37;26.25
68141;BME280;54941;52.220;104.306;2023-04-30T03:01:51;94741.13;;;23.88;25.88
68141;BME280;54941;52.220;104.306;2023-04-30T03:04:18;94738.94;;;23.77;26.08
68141;BME280;54941;52.220;104.306;2023-04-30T03:06:46;94744.53;;;23.64;25.48
68141;BME280;54941;52.220;104.306;2023-04-30T03:09:13;94735.53;;;23.77;25.99
68141;BME280;54941;52.220;104.306;2023-04-30T03:11:40;94737.16;;;24.54;25.37
68141;BME280;54941;52.220;104.306;2023-04-30T03:14:06;94732.19;;;26.42;23.33
68141;BME280;54941;52.220;104.306;2023-04-30T03:16:34;94723.75;;;24.59;24.38
68141;BME280;54941;52.220;104.306;2023-04-30T03:19:00;94723.16;;;24.90;24.69
68141;BME280;54941;52.220;104.306;2023-04-30T03:21:27;94714.44;;;25.77;23.74
68141;BME280;54941;52.220;104.306;2023-04-30T03:23:53;94710.84;;;23.12;26.71
68141;BME280;54941;52.220;104.306;2023-04-30T03:26:21;94714.38;;;26.04;23.66
68141;BME280;54941;52.220;104.306;2023-04-30T03:28:47;94711.19;;;24.04;25.63
68141;BME280;54941;52.220;104.306;2023-04-30T03:31:13;94702.63;;;25.55;23.62
68141;BME280;54941;52.220;104.306;2023-04-30T03:33:40;94706.53;;;26.24;23.24
68141;BME280;54941;52.220;104.306;2023-04-30T03:36:06;94688.25;;;25.09;24.02
68141;BME280;54941;52.220;104.306;2023-04-30T03:44:01;94625.91;;;19.78;27.73
68141;BME280;54941;52.220;104.306;2023-04-30T03:46:28;94609.81;;;19.37;28.51
68141;BME280;54941;52.220;104.306;2023-04-30T03:48:54;94609.19;;;17.44;30.88
68141;BME280;54941;52.220;104.306;2023-04-30T03:51:21;94605.44;;;17.47;31.47
68141;BME280;54941;52.220;104.306;2023-04-30T03:53:47;94599.41;;;16.49;33.38
68141;BME280;54941;52.220;104.306;2023-04-30T03:56:14;94596.53;;;16.52;34.43
68141;BME280;54941;52.220;104.306;2023-04-30T03:58:40;94587.94;;;17.32;32.36
68141;BME280;54941;52.220;104.306;2023-04-30T04:01:08;94587.22;;;17.76;31.43
68141;BME280;54941;52.220;104.306;2023-04-30T04:03:34;94584.88;;;16.29;34.15
68141;BME280;54941;52.220;104.306;2023-04-30T04:06:00;94584.25;;;17.21;31.69
68141;BME280;54941;52.220;104.306;2023-04-30T04:08:27;94568.00;;;17.25;32.60
68141;BME280;54941;52.220;104.306;2023-04-30T04:10:53;94565.91;;;15.72;34.47
68141;BME280;54941;52.220;104.306;2023-04-30T04:13:19;94557.81;;;16.83;32.61
68141;BME280;54941;52.220;104.306;2023-04-30T04:15:46;94555.69;;;16.52;33.40
68141;BME280;54941;52.220;104.306;2023-04-30T04:18:13;94553.94;;;16.63;34.61
68141;BME280;54941;52.220;104.306;2023-04-30T04:20:40;94533.25;;;18.27;30.56
68141;BME280;54941;52.220;104.306;2023-04-30T04:23:06;94527.94;;;18.04;30.93
68141;BME280;54941;52.220;104.306;2023-04-30T04:25:32;94528.84;;;17.25;32.50
68141;BME280;54941;52.220;104.306;2023-04-30T04:27:59;94519.72;;;17.74;31.42
68141;BME280;54941;52.220;104.306;2023-04-30T04:30:25;94509.09;;;19.24;29.00
68141;BME280;54941;52.220;104.306;2023-04-30T04:32:51;94505.47;;;18.18;31.07
68141;BME280;54941;52.220;104.306;2023-04-30T04:35:19;94504.09;;;18.24;30.12
68141;BME280;54941;52.220;104.306;2023-04-30T04:37:45;94494.75;;;18.73;30.19
68141;BME280;54941;52.220;104.306;2023-04-30T04:40:12;94491.09;;;18.30;31.29
68141;BME280;54941;52.220;104.306;2023-04-30T04:42:38;94483.03;;;17.76;32.31
68141;BME280;54941;52.220;104.306;2023-04-30T04:45:05;94481.31;;;17.53;32.27
68141;BME280;54941;52.220;104.306;2023-04-30T04:47:32;94478.88;;;17.94;31.46
68141;BME280;54941;52.220;104.306;2023-04-30T04:49:58;94475.47;;;17.92;30.92
68141;BME280;54941;52.220;104.306;2023-04-30T04:52:26;94464.19;;;17.33;32.18
68141;BME280;54941;52.220;104.306;2023-04-30T04:54:53;94457.16;;;17.65;31.27
68141;BME280;54941;52.220;104.306;2023-04-30T04:57:19;94452.53;;;18.01;31.54
68141;BME280;54941;52.220;104.306;2023-04-30T04:59:45;94451.59;;;18.34;31.24
68141;BME280;54941;52.220;104.306;2023-04-30T05:02:12;94441.94;;;18.75;32.27
68141;BME280;54941;52.220;104.306;2023-04-30T05:04:38;94431.78;;;17.71;32.40
68141;BME280;54941;52.220;104.306;2023-04-30T05:07:04;94422.00;;;18.79;30.32
68141;BME280;54941;52.220;104.306;2023-04-30T05:09:32;94422.59;;;18.50;31.09
68141;BME280;54941;52.220;104.306;2023-04-30T05:11:58;94407.44;;;18.19;32.38
68141;BME280;54941;52.220;104.306;2023-04-30T05:14:25;94406.38;;;17.99;32.07
68141;BME280;54941;52.220;104.306;2023-04-30T05:16:51;94396.16;;;18.04;32.68
68141;BME280;54941;52.220;104.306;2023-04-30T05:19:17;94390.81;;;18.36;31.21
68141;BME280;54941;52.220;104.306;2023-04-30T05:21:44;94383.41;;;18.07;31.95
68141;BME280;54941;52.220;104.306;2023-04-30T05:24:10;94377.88;;;18.52;30.59
68141;BME280;54941;52.220;104.306;2023-04-30T05:26:38;94373.28;;;18.43;31.11
68141;BME280;54941;52.220;104.306;2023-04-30T05:29:04;94366.00;;;18.87;30.48
68141;BME280;54941;52.220;104.306;2023-04-30T05:31:30;94366.81;;;18.99;30.77
68141;BME280;54941;52.220;104.306;2023-04-30T05:33:57;94366.75;;;19.19;29.73
68141;BME280;54941;52.220;104.306;2023-04-30T05:36:23;94362.13;;;19.31;29.01
68141;BME280;54941;52.220;104.306;2023-04-30T05:38:49;94357.91;;;19.29;29.18
68141;BME280;54941;52.220;104.306;2023-04-30T05:41:15;94350.06;;;19.87;28.36
68141;BME280;54941;52.220;104.306;2023-04-30T05:43:43;94351.13;;;19.24;29.46
68141;BME280;54941;52.220;104.306;2023-04-30T05:46:09;94342.72;;;19.39;29.39
68141;BME280;54941;52.220;104.306;2023-04-30T05:48:36;94332.34;;;19.45;28.85
68141;BME280;54941;52.220;104.306;2023-04-30T05:51:02;94326.06;;;19.26;29.16
68141;BME280;54941;52.220;104.306;2023-04-30T05:53:28;94321.59;;;19.95;28.07
68141;BME280;54941;52.220;104.306;2023-04-30T05:55:55;94318.16;;;19.64;28.51
68141;BME280;54941;52.220;104.306;2023-04-30T05:58:21;94311.31;;;20.10;27.51
68141;BME280;54941;52.220;104.306;2023-04-30T06:00:50;94307.81;;;19.50;28.11
68141;BME280;54941;52.220;104.306;2023-04-30T06:03:16;94301.97;;;19.26;28.16
68141;BME280;54941;52.220;104.306;2023-04-30T06:05:42;94295.22;;;19.41;27.86
68141;BME280;54941;52.220;104.306;2023-04-30T06:08:08;94289.84;;;19.31;28.23
68141;BME280;54941;52.220;104.306;2023-04-30T06:10:34;94279.56;;;19.27;28.81
68141;BME280;54941;52.220;104.306;2023-04-30T06:13:01;94277.41;;;19.11;28.65
68141;BME280;54941;52.220;104.306;2023-04-30T06:15:27;94279.75;;;19.04;29.67
68141;BME280;54941;52.220;104.306;2023-04-30T06:17:55;94271.25;;;19.30;29.19
68141;BME280;54941;52.220;104.306;2023-04-30T06:20:21;94277.09;;;19.04;29.34
68141;BME280;54941;52.220;104.306;2023-04-30T06:22:47;94266.56;;;19.12;29.07
68141;BME280;54941;52.220;104.306;2023-04-30T06:25:14;94258.94;;;19.17;28.62
68141;BME280;54941;52.220;104.306;2023-04-30T06:27:40;94249.25;;;19.26;28.54
68141;BME280;54941;52.220;104.306;2023-04-30T06:30:08;94243.22;;;19.34;27.66
68141;BME280;54941;52.220;104.306;2023-04-30T06:32:34;94240.44;;;19.45;27.71
68141;BME280;54941;52.220;104.306;2023-04-30T06:35:03;94235.69;;;19.58;27.38
68141;BME280;54941;52.220;104.306;2023-04-30T06:37:30;94234.41;;;19.62;27.15
68141;BME280;54941;52.220;104.306;2023-04-30T06:39:56;94224.41;;;20.03;26.37
68141;BME280;54941;52.220;104.306;2023-04-30T06:42:23;94222.59;;;20.03;27.05
68141;BME280;54941;52.220;104.306;2023-04-30T06:44:49;94208.44;;;20.21;25.97
68141;BME280;54941;52.220;104.306;2023-04-30T06:47:16;94204.78;;;20.12;26.50
68141;BME280;54941;52.220;104.306;2023-04-30T06:49:42;94196.72;;;20.22;26.84
68141;BME280;54941;52.220;104.306;2023-04-30T06:52:10;94193.16;;;20.40;25.74
68141;BME280;54941;52.220;104.306;2023-04-30T06:54:36;94187.53;;;20.24;25.79
68141;BME280;54941;52.220;104.306;2023-04-30T06:57:02;94176.28;;;20.11;25.92
68141;BME280;54941;52.220;104.306;2023-04-30T06:59:29;94172.34;;;20.15;26.26
68141;BME280;54941;52.220;104.306;2023-04-30T07:01:55;94169.06;;;20.11;26.30
68141;BME280;54941;52.220;104.306;2023-04-30T07:04:22;94168.38;;;20.19;25.99
68141;BME280;54941;52.220;104.306;2023-04-30T07:06:48;94155.16;;;19.89;26.41
68141;BME280;54941;52.220;104.306;2023-04-30T07:09:16;94145.00;;;19.92;26.83
68141;BME280;54941;52.220;104.306;2023-04-30T07:11:42;94132.88;;;20.35;26.34
68141;BME280;54941;52.220;104.306;2023-04-30T07:14:09;94123.72;;;20.37;26.75
68141;BME280;54941;52.220;104.306;2023-04-30T07:16:35;94129.84;;;20.10;26.97
68141;BME280;54941;52.220;104.306;2023-04-30T07:19:01;94116.38;;;20.39;26.66
68141;BME280;54941;52.220;104.306;2023-04-30T07:21:28;94105.44;;;20.88;25.94
68141;BME280;54941;52.220;104.306;2023-04-30T07:23:54;94107.66;;;20.92;25.85
68141;BME280;54941;52.220;104.306;2023-04-30T07:26:22;94101.31;;;21.11;25.96
68141;BME280;54941;52.220;104.306;2023-04-30T07:28:48;94095.94;;;21.11;26.08
68141;BME280;54941;52.220;104.306;2023-04-30T07:31:14;94096.53;;;21.05;26.32
68141;BME280;54941;52.220;104.306;2023-04-30T07:33:41;94098.31;;;20.69;25.81
68141;BME280;54941;52.220;104.306;2023-04-30T07:36:07;94085.09;;;20.85;26.43
68141;BME280;54941;52.220;104.306;2023-04-30T07:38:33;94090.47;;;20.85;26.08
68141;BME280;54941;52.220;104.306;2023-04-30T07:41:00;94073.91;;;20.90;25.32
68141;BME280;54941;52.220;104.306;2023-04-30T07:43:27;94077.84;;;21.13;25.22
68141;BME280;54941;52.220;104.306;2023-04-30T07:45:54;94059.63;;;20.89;25.74
68141;BME280;54941;52.220;104.306;2023-04-30T07:48:20;94063.06;;;20.82;25.44
68141;BME280;54941;52.220;104.306;2023-04-30T07:50:47;94057.06;;;20.97;25.55
68141;BME280;54941;52.220;104.306;2023-04-30T07:53:13;94056.06;;;20.98;25.67
68141;BME280;54941;52.220;104.306;2023-04-30T07:55:39;94060.59;;;20.71;25.04
68141;BME280;54941;52.220;104.306;2023-04-30T07:58:06;94069.22;;;20.74;24.50
68141;BME280;54941;52.220;104.306;2023-04-30T08:00:34;94064.34;;;20.23;24.75
68141;BME280;54941;52.220;104.306;2023-04-30T08:03:00;94062.25;;;20.54;24.98
68141;BME280;54941;52.220;104.306;2023-04-30T08:05:27;94049.06;;;20.33;25.25
68141;BME280;54941;52.220;104.306;2023-04-30T08:07:53;94037.91;;;20.37;25.47
68141;BME280;54941;52.220;104.306;2023-04-30T08:10:20;94044.72;;;20.22;25.49
68141;BME280;54941;52.220;104.306;2023-04-30T08:12:46;94037.00;;;20.19;25.51
68141;BME280;54941;52.220;104.306;2023-04-30T08:15:12;94022.22;;;20.15;25.60
68141;BME280;54941;52.220;104.306;2023-04-30T08:17:40;94021.28;;;20.24;25.17
68141;BME280;54941;52.220;104.306;2023-04-30T08:20:07;94013.19;;;20.44;25.26
68141;BME280;54941;52.220;104.306;2023-04-30T08:22:34;94000.16;;;20.49;25.73
68141;BME280;54941;52.220;104.306;2023-04-30T08:25:00;94008.72;;;20.62;24.36
68141;BME280;54941;52.220;104.306;2023-04-30T08:27:26;93997.56;;;20.29;25.13
68141;BME280;54941;52.220;104.306;2023-04-30T08:29:52;94003.81;;;20.20;24.98
68141;BME280;54941;52.220;104.306;2023-04-30T08:32:19;94004.81;;;20.19;24.60
68141;BME280;54941;52.220;104.306;2023-04-30T08:34:47;93996.50;;;20.13;24.65
68141;BME280;54941;52.220;104.306;2023-04-30T08:37:13;93989.41;;;20.21;24.41
68141;BME280;54941;52.220;104.306;2023-04-30T08:39:39;93982.16;;;20.31;23.86
68141;BME280;54941;52.220;104.306;2023-04-30T08:42:08;93980.53;;;20.48;24.32
68141;BME280;54941;52.220;104.306;2023-04-30T08:44:36;93982.78;;;20.71;24.30
68141;BME280;54941;52.220;104.306;2023-04-30T08:47:02;93980.94;;;20.71;23.75
68141;BME280;54941;52.220;104.306;2023-04-30T08:49:29;93982.53;;;20.46;24.14
68141;BME280;54941;52.220;104.306;2023-04-30T08:51:57;93995.66;;;20.49;23.63
68141;BME280;54941;52.220;104.306;2023-04-30T08:54:23;93990.75;;;20.35;23.81
68141;BME280;54941;52.220;104.306;2023-04-30T08:56:51;94001.03;;;20.12;24.23
68141;BME280;54941;52.220;104.306;2023-04-30T08:59:17;94010.75;;;20.13;24.17
68141;BME280;54941;52.220;104.306;2023-04-30T09:01:44;94007.88;;;20.24;24.04
68141;BME280;54941;52.220;104.306;2023-04-30T09:04:10;94007.72;;;20.26;23.70
68141;BME280;54941;52.220;104.306;2023-04-30T09:06:36;94007.47;;;20.29;23.64
68141;BME280;54941;52.220;104.306;2023-04-30T09:09:10;94010.75;;;20.13;24.39
68141;BME280;54941;52.220;104.306;2023-04-30T09:11:36;94002.69;;;20.23;23.98
68141;BME280;54941;52.220;104.306;2023-04-30T09:14:03;94003.81;;;20.20;24.23
68141;BME280;54941;52.220;104.306;2023-04-30T09:16:43;94008.88;;;20.23;24.21
68141;BME280;54941;52.220;104.306;2023-04-30T09:19:09;94010.81;;;20.03;24.54
68141;BME280;54941;52.220;104.306;2023-04-30T09:21:45;94001.88;;;20.13;24.61
68141;BME280;54941;52.220;104.306;2023-04-30T09:24:13;93994.78;;;20.21;24.64
68141;BME280;54941;52.220;104.306;2023-04-30T09:26:39;93977.63;;;20.59;24.32
68141;BME280;54941;52.220;104.306;2023-04-30T09:29:06;93969.91;;;20.92;23.54
68141;BME280;54941;52.220;104.306;2023-04-30T09:31:33;93975.53;;;20.63;24.44
68141;BME280;54941;52.220;104.306;2023-04-30T09:33:59;93983.34;;;20.74;24.17
68141;BME280;54941;52.220;104.306;2023-04-30T09:36:25;93983.09;;;20.67;25.66
68141;BME280;54941;52.220;104.306;2023-04-30T09:38:52;93994.13;;;19.82;26.50
68141;BME280;54941;52.220;104.306;2023-04-30T09:41:25;93994.31;;;19.98;25.72
68141;BME280;54941;52.220;104.306;2023-04-30T09:43:52;93990.53;;;20.28;25.08
68141;BME280;54941;52.220;104.306;2023-04-30T09:46:19;93991.53;;;20.27;24.73
68141;BME280;54941;52.220;104.306;2023-04-30T09:48:46;94002.78;;;20.31;24.48
68141;BME280;54941;52.220;104.306;2023-04-30T09:51:12;94014.00;;;20.17;25.95
68141;BME280;54941;52.220;104.306;2023-04-30T09:53:41;94012.38;;;19.30;33.13
68141;BME280;54941;52.220;104.306;2023-04-30T09:56:11;94041.34;;;18.48;37.72
68141;BME280;54941;52.220;104.306;2023-04-30T09:58:42;94044.38;;;17.93;39.79
68141;BME280;54941;52.220;104.306;2023-04-30T10:01:09;94053.03;;;17.34;41.88
68141;BME280;54941;52.220;104.306;2023-04-30T10:03:37;94064.25;;;17.49;42.17
68141;BME280;54941;52.220;104.306;2023-04-30T10:06:05;94065.53;;;17.55;42.63
68141;BME280;54941;52.220;104.306;2023-04-30T10:08:35;94091.09;;;17.36;43.49
68141;BME280;54941;52.220;104.306;2023-04-30T10:11:05;94107.13;;;16.61;45.34
68141;BME280;54941;52.220;104.306;2023-04-30T10:13:37;94126.91;;;15.45;47.27
68141;BME280;54941;52.220;104.306;2023-04-30T10:16:11;94139.50;;;15.08;47.98
68141;BME280;54941;52.220;104.306;2023-04-30T10:18:41;94145.66;;;14.61;49.07
68141;BME280;54941;52.220;104.306;2023-04-30T10:21:11;94155.41;;;14.73;48.91
68141;BME280;54941;52.220;104.306;2023-04-30T10:23:38;94154.13;;;14.66;48.57
68141;BME280;54941;52.220;104.306;2023-04-30T10:26:05;94179.06;;;14.39;48.99
68141;BME280;54941;52.220;104.306;2023-04-30T10:28:31;94185.44;;;14.37;48.91
68141;BME280;54941;52.220;104.306;2023-04-30T10:30:58;94194.25;;;14.37;48.66
68141;BME280;54941;52.220;104.306;2023-04-30T10:33:31;94194.72;;;13.67;49.13
68141;BME280;54941;52.220;104.306;2023-04-30T10:35:59;94205.59;;;13.50;49.90
68141;BME280;54941;52.220;104.306;2023-04-30T10:38:27;94222.00;;;13.30;50.39
68141;BME280;54941;52.220;104.306;2023-04-30T10:40:55;94215.78;;;13.43;50.17
68141;BME280;54941;52.220;104.306;2023-04-30T10:43:23;94229.75;;;13.33;50.08
68141;BME280;54941;52.220;104.306;2023-04-30T10:45:49;94232.56;;;13.44;49.12
68141;BME280;54941;52.220;104.306;2023-04-30T10:48:16;94243.34;;;13.14;49.24
68141;BME280;54941;52.220;104.306;2023-04-30T10:50:44;94238.88;;;12.88;49.10
68141;BME280;54941;52.220;104.306;2023-04-30T10:53:13;94242.16;;;12.64;49.75
68141;BME280;54941;52.220;104.306;2023-04-30T10:55:45;94257.28;;;12.76;49.39
68141;BME280;54941;52.220;104.306;2023-04-30T10:58:26;94266.13;;;12.90;49.04
68141;BME280;54941;52.220;104.306;2023-04-30T11:01:03;94279.78;;;12.69;49.40
68141;BME280;54941;52.220;104.306;2023-04-30T11:03:32;94291.25;;;12.55;49.17
68141;BME280;54941;52.220;104.306;2023-04-30T11:06:07;94297.59;;;12.24;49.59
68141;BME280;54941;52.220;104.306;2023-04-30T11:08:35;94313.13;;;12.16;49.72
68141;BME280;54941;52.220;104.306;2023-04-30T11:11:02;94307.31;;;11.95;50.30
68141;BME280;54941;52.220;104.306;2023-04-30T11:13:28;94324.88;;;11.96;49.88
68141;BME280;54941;52.220;104.306;2023-04-30T11:16:04;94330.28;;;11.95;50.00
68141;BME280;54941;52.220;104.306;2023-04-30T11:18:30;94348.97;;;11.76;50.07
68141;BME280;54941;52.220;104.306;2023-04-30T11:20:57;94353.75;;;11.39;50.84
68141;BME280;54941;52.220;104.306;2023-04-30T11:23:25;94349.66;;;11.50;50.20
68141;BME280;54941;52.220;104.306;2023-04-30T11:25:53;94352.56;;;11.29;50.50
68141;BME280;54941;52.220;104.306;2023-04-30T11:28:22;94360.06;;;11.37;50.66
68141;BME280;54941;52.220;104.306;2023-04-30T11:30:50;94365.88;;;11.28;50.38
68141;BME280;54941;52.220;104.306;2023-04-30T11:33:17;94364.59;;;11.03;50.71
68141;BME280;54941;52.220;104.306;2023-04-30T11:35:44;94366.31;;;11.04;50.86
68141;BME280;54941;52.220;104.306;2023-04-30T11:38:11;94388.59;;;10.67;51.33
68141;BME280;54941;52.220;104.306;2023-04-30T11:40:39;94405.13;;;10.71;51.28
68141;BME280;54941;52.220;104.306;2023-04-30T11:43:06;94409.00;;;10.64;51.51
68141;BME280;54941;52.220;104.306;2023-04-30T11:45:32;94417.56;;;10.69;51.36
68141;BME280;54941;52.220;104.306;2023-04-30T11:47:59;94442.44;;;10.47;51.70
68141;BME280;54941;52.220;104.306;2023-04-30T11:50:26;94451.16;;;10.32;51.90
68141;BME280;54941;52.220;104.306;2023-04-30T11:52:53;94454.66;;;10.33;51.88
68141;BME280;54941;52.220;104.306;2023-04-30T11:55:21;94460.06;;;10.30;51.91
68141;BME280;54941;52.220;104.306;2023-04-30T11:57:50;94474.75;;;10.35;52.01
68141;BME280;54941;52.220;104.306;2023-04-30T12:00:17;94485.41;;;10.34;52.23
68141;BME280;54941;52.220;104.306;2023-04-30T12:02:46;94490.41;;;10.21;52.74
68141;BME280;54941;52.220;104.306;2023-04-30T12:05:14;94491.97;;;10.25;52.48
68141;BME280;54941;52.220;104.306;2023-04-30T12:07:45;94506.38;;;10.18;52.44
68141;BME280;54941;52.220;104.306;2023-04-30T12:10:12;94504.28;;;10.07;52.79
68141;BME280;54941;52.220;104.306;2023-04-30T12:12:38;94505.88;;;9.92;53.14
68141;BME280;54941;52.220;104.306;2023-04-30T12:15:14;94519.41;;;10.04;53.03
68141;BME280;54941;52.220;104.306;2023-04-30T12:17:42;94513.59;;;9.97;52.98
68141;BME280;54941;52.220;104.306;2023-04-30T12:20:09;94507.16;;;9.84;52.96
68141;BME280;54941;52.220;104.306;2023-04-30T12:22:36;94525.88;;;9.60;52.99
68141;BME280;54941;52.220;104.306;2023-04-30T12:25:06;94518.53;;;9.67;53.11
68141;BME280;54941;52.220;104.306;2023-04-30T12:27:32;94536.50;;;9.59;52.81
68141;BME280;54941;52.220;104.306;2023-04-30T12:30:03;94530.75;;;9.32;54.11
68141;BME280;54941;52.220;104.306;2023-04-30T12:32:37;94544.34;;;9.42;53.40
68141;BME280;54941;52.220;104.306;2023-04-30T12:35:03;94538.72;;;9.30;53.87
68141;BME280;54941;52.220;104.306;2023-04-30T12:37:30;94553.25;;;9.39;53.17
68141;BME280;54941;52.220;104.306;2023-04-30T12:39:57;94554.84;;;9.62;51.92
68141;BME280;54941;52.220;104.306;2023-04-30T12:42:24;94556.69;;;9.41;52.65
68141;BME280;54941;52.220;104.306;2023-04-30T12:44:50;94568.94;;;9.42;52.64
68141;BME280;54941;52.220;104.306;2023-04-30T12:47:17;94561.88;;;9.43;52.52